sensor_id;sensor_type;location;lat;lon;timestamp;temperature;humidity
65995;HTU21D;52764;51.036;5.852;2023-08-12T00:00:21;24.62;78.85
65995;HTU21D;52764;51.036;5.852;2023-08-12T00:02:47;24.61;78.88
65995;HTU21D;52764;51.036;5.852;2023-08-12T00:05:13;24.61;78.92
65995;HTU21D;52764;51.036;5.852;2023-08-12T00:07:40;24.64;78.79
65995;HTU21D;52764;51.036;5.852;2023-08-12T00:10:11;24.70;78.47
65995;HTU21D;52764;51.036;5.852;2023-08-12T00:12:38;24.71;78.33
65995;HTU21D;52764;51.036;5.852;2023-08-12T00:15:05;24.72;78.39
65995;HTU21D;52764;51.036;5.852;2023-08-12T00:17:32;24.69;78.43
65995;HTU21D;52764;51.036;5.852;2023-08-12T00:19:59;24.69;78.62
65995;HTU21D;52764;51.036;5.852;2023-08-12T00:22:24;24.71;78.53
65995;HTU21D;52764;51.036;5.852;2023-08-12T00:24:51;24.74;78.39
65995;HTU21D;52764;51.036;5.852;2023-08-12T00:27:17;24.86;78.13
65995;HTU21D;52764;51.036;5.852;2023-08-12T00:29:43;24.62;78.32
65995;HTU21D;52764;51.036;5.852;2023-08-12T00:32:09;24.57;78.63
65995;HTU21D;52764;51.036;5.852;2023-08-12T00:34:35;24.55;78.92
65995;HTU21D;52764;51.036;5.852;2023-08-12T00:37:01;24.55;78.98
65995;HTU21D;52764;51.036;5.852;2023-08-12T00:39:27;24.57;78.76
65995;HTU21D;52764;51.036;5.852;2023-08-12T00:41:53;24.59;78.71
65995;HTU21D;52764;51.036;5.852;2023-08-12T00:44:19;24.58;78.66
65995;HTU21D;52764;51.036;5.852;2023-08-12T00:46:45;24.58;78.69
65995;HTU21D;52764;51.036;5.852;2023-08-12T00:49:12;24.59;78.75
65995;HTU21D;52764;51.036;5.852;2023-08-12T00:51:44;24.61;78.69
65995;HTU21D;52764;51.036;5.852;2023-08-12T00:54:14;24.64;78.35
65995;HTU21D;52764;51.036;5.852;2023-08-12T00:56:40;24.62;78.17
65995;HTU21D;52764;51.036;5.852;2023-08-12T00:59:08;24.58;78.22
65995;HTU21D;52764;51.036;5.852;2023-08-12T01:01:40;24.55;78.21
65995;HTU21D;52764;51.036;5.852;2023-08-12T01:04:09;24.54;78.32
65995;HTU21D;52764;51.036;5.852;2023-08-12T01:06:36;24.49;78.36
65995;HTU21D;52764;51.036;5.852;2023-08-12T01:09:04;24.47;78.51
65995;HTU21D;52764;51.036;5.852;2023-08-12T01:11:39;24.48;78.56
65995;HTU21D;52764;51.036;5.852;2023-08-12T01:14:28;24.54;78.26
65995;HTU21D;52764;51.036;5.852;2023-08-12T01:17:02;24.56;78.12
65995;HTU21D;52764;51.036;5.852;2023-08-12T01:19:40;24.56;78.19
65995;HTU21D;52764;51.036;5.852;2023-08-12T01:22:11;24.58;78.20
65995;HTU21D;52764;51.036;5.852;2023-08-12T01:24:44;24.56;78.31
65995;HTU21D;52764;51.036;5.852;2023-08-12T01:27:11;24.59;78.31
65995;HTU21D;52764;51.036;5.852;2023-08-12T01:29:43;24.62;78.20
65995;HTU21D;52764;51.036;5.852;2023-08-12T01:35:09;24.68;78.01
65995;HTU21D;52764;51.036;5.852;2023-08-12T01:37:38;24.73;77.76
65995;HTU21D;52764;51.036;5.852;2023-08-12T01:40:06;24.76;77.53
65995;HTU21D;52764;51.036;5.852;2023-08-12T01:42:35;24.77;77.37
65995;HTU21D;52764;51.036;5.852;2023-08-12T01:45:02;24.78;77.29
65995;HTU21D;52764;51.036;5.852;2023-08-12T01:47:28;24.79;77.16
65995;HTU21D;52764;51.036;5.852;2023-08-12T01:49:55;24.79;77.22
65995;HTU21D;52764;51.036;5.852;2023-08-12T01:52:23;24.80;77.05
65995;HTU21D;52764;51.036;5.852;2023-08-12T01:54:48;24.82;76.85
65995;HTU21D;52764;51.036;5.852;2023-08-12T01:57:14;24.82;76.70
65995;HTU21D;52764;51.036;5.852;2023-08-12T01:59:40;24.76;76.59
65995;HTU21D;52764;51.036;5.852;2023-08-12T02:02:06;24.75;76.50
65995;HTU21D;52764;51.036;5.852;2023-08-12T02:04:33;24.70;76.13
65995;HTU21D;52764;51.036;5.852;2023-08-12T02:06:59;24.64;76.46
65995;HTU21D;52764;51.036;5.852;2023-08-12T02:09:25;24.71;76.32
65995;HTU21D;52764;51.036;5.852;2023-08-12T02:11:50;24.68;76.37
65995;HTU21D;52764;51.036;5.852;2023-08-12T02:14:16;24.66;76.15
65995;HTU21D;52764;51.036;5.852;2023-08-12T02:16:42;24.61;76.21
65995;HTU21D;52764;51.036;5.852;2023-08-12T02:19:08;24.57;76.28
65995;HTU21D;52764;51.036;5.852;2023-08-12T02:21:33;24.54;76.47
65995;HTU21D;52764;51.036;5.852;2023-08-12T02:23:59;24.54;76.47
65995;HTU21D;52764;51.036;5.852;2023-08-12T02:26:25;24.50;76.41
65995;HTU21D;52764;51.036;5.852;2023-08-12T02:28:51;24.46;76.20
65995;HTU21D;52764;51.036;5.852;2023-08-12T02:31:17;24.46;76.30
65995;HTU21D;52764;51.036;5.852;2023-08-12T02:33:43;24.48;76.36
65995;HTU21D;52764;51.036;5.852;2023-08-12T02:36:09;24.48;76.38
65995;HTU21D;52764;51.036;5.852;2023-08-12T02:38:34;24.46;76.32
65995;HTU21D;52764;51.036;5.852;2023-08-12T02:41:00;24.45;76.62
65995;HTU21D;52764;51.036;5.852;2023-08-12T02:43:26;24.44;76.78
65995;HTU21D;52764;51.036;5.852;2023-08-12T02:45:52;24.45;76.86
65995;HTU21D;52764;51.036;5.852;2023-08-12T02:48:18;24.46;76.82
65995;HTU21D;52764;51.036;5.852;2023-08-12T02:50:43;24.45;76.90
65995;HTU21D;52764;51.036;5.852;2023-08-12T02:53:09;24.43;76.98
65995;HTU21D;52764;51.036;5.852;2023-08-12T02:55:35;24.40;77.08
65995;HTU21D;52764;51.036;5.852;2023-08-12T02:58:04;24.38;77.47
65995;HTU21D;52764;51.036;5.852;2023-08-12T03:00:30;24.39;77.61
65995;HTU21D;52764;51.036;5.852;2023-08-12T03:02:56;24.36;77.62
65995;HTU21D;52764;51.036;5.852;2023-08-12T03:05:22;24.31;77.79
65995;HTU21D;52764;51.036;5.852;2023-08-12T03:07:49;24.27;78.05
65995;HTU21D;52764;51.036;5.852;2023-08-12T03:10:15;24.28;77.97
65995;HTU21D;52764;51.036;5.852;2023-08-12T03:12:41;24.28;77.81
65995;HTU21D;52764;51.036;5.852;2023-08-12T03:15:07;24.29;77.86
65995;HTU21D;52764;51.036;5.852;2023-08-12T03:17:33;24.28;77.81
65995;HTU21D;52764;51.036;5.852;2023-08-12T03:19:59;24.29;77.69
65995;HTU21D;52764;51.036;5.852;2023-08-12T03:22:29;24.28;77.76
65995;HTU21D;52764;51.036;5.852;2023-08-12T03:24:55;24.28;77.85
65995;HTU21D;52764;51.036;5.852;2023-08-12T03:27:21;24.29;78.02
65995;HTU21D;52764;51.036;5.852;2023-08-12T03:29:48;24.31;77.92
65995;HTU21D;52764;51.036;5.852;2023-08-12T03:32:15;24.34;77.79
65995;HTU21D;52764;51.036;5.852;2023-08-12T03:34:41;24.36;77.73
65995;HTU21D;52764;51.036;5.852;2023-08-12T03:37:06;24.39;77.60
65995;HTU21D;52764;51.036;5.852;2023-08-12T03:39:33;24.42;77.56
65995;HTU21D;52764;51.036;5.852;2023-08-12T03:41:59;24.44;77.49
65995;HTU21D;52764;51.036;5.852;2023-08-12T03:44:25;24.43;77.49
65995;HTU21D;52764;51.036;5.852;2023-08-12T03:46:51;24.42;77.46
65995;HTU21D;52764;51.036;5.852;2023-08-12T03:49:18;24.29;77.71
65995;HTU21D;52764;51.036;5.852;2023-08-12T03:51:44;24.21;78.07
65995;HTU21D;52764;51.036;5.852;2023-08-12T03:54:10;24.23;78.08
65995;HTU21D;52764;51.036;5.852;2023-08-12T03:56:36;24.21;78.00
65995;HTU21D;52764;51.036;5.852;2023-08-12T03:59:03;24.21;77.99
65995;HTU21D;52764;51.036;5.852;2023-08-12T04:01:28;24.11;78.22
65995;HTU21D;52764;51.036;5.852;2023-08-12T04:03:55;24.02;78.70
65995;HTU21D;52764;51.036;5.852;2023-08-12T04:06:21;24.00;78.86
65995;HTU21D;52764;51.036;5.852;2023-08-12T04:08:47;24.03;78.72
65995;HTU21D;52764;51.036;5.852;2023-08-12T04:11:12;23.95;78.88
65995;HTU21D;52764;51.036;5.852;2023-08-12T04:13:40;23.87;79.13
65995;HTU21D;52764;51.036;5.852;2023-08-12T04:16:05;23.76;79.48
65995;HTU21D;52764;51.036;5.852;2023-08-12T04:18:31;23.74;79.83
65995;HTU21D;52764;51.036;5.852;2023-08-12T04:20:58;23.79;79.79
65995;HTU21D;52764;51.036;5.852;2023-08-12T04:23:24;23.83;79.50
65995;HTU21D;52764;51.036;5.852;2023-08-12T04:25:52;23.83;79.46
65995;HTU21D;52764;51.036;5.852;2023-08-12T04:28:19;23.62;80.04
65995;HTU21D;52764;51.036;5.852;2023-08-12T04:30:47;23.45;80.88
65995;HTU21D;52764;51.036;5.852;2023-08-12T04:33:14;23.34;81.65
65995;HTU21D;52764;51.036;5.852;2023-08-12T04:35:41;23.26;82.07
65995;HTU21D;52764;51.036;5.852;2023-08-12T04:38:07;23.16;82.40
65995;HTU21D;52764;51.036;5.852;2023-08-12T04:40:37;23.11;82.46
65995;HTU21D;52764;51.036;5.852;2023-08-12T04:43:03;23.07;82.63
65995;HTU21D;52764;51.036;5.852;2023-08-12T04:45:29;23.11;82.71
65995;HTU21D;52764;51.036;5.852;2023-08-12T04:47:56;23.12;82.65
65995;HTU21D;52764;51.036;5.852;2023-08-12T04:50:23;23.18;82.54
65995;HTU21D;52764;51.036;5.852;2023-08-12T04:52:48;22.03;82.34
65995;HTU21D;52764;51.036;5.852;2023-08-12T04:55:16;23.39;81.88
65995;HTU21D;52764;51.036;5.852;2023-08-12T04:57:43;23.47;81.46
65995;HTU21D;52764;51.036;5.852;2023-08-12T05:00:09;23.54;81.12
65995;HTU21D;52764;51.036;5.852;2023-08-12T05:02:36;23.53;81.02
65995;HTU21D;52764;51.036;5.852;2023-08-12T05:05:02;23.45;81.02
65995;HTU21D;52764;51.036;5.852;2023-08-12T05:07:30;23.40;81.24
65995;HTU21D;52764;51.036;5.852;2023-08-12T05:09:57;23.36;81.27
65995;HTU21D;52764;51.036;5.852;2023-08-12T05:12:23;23.36;81.07
65995;HTU21D;52764;51.036;5.852;2023-08-12T05:14:49;23.27;81.04
65995;HTU21D;52764;51.036;5.852;2023-08-12T05:17:15;23.17;81.11
65995;HTU21D;52764;51.036;5.852;2023-08-12T05:19:42;23.11;81.53
65995;HTU21D;52764;51.036;5.852;2023-08-12T05:22:07;23.06;81.42
65995;HTU21D;52764;51.036;5.852;2023-08-12T05:24:33;22.96;81.62
65995;HTU21D;52764;51.036;5.852;2023-08-12T05:26:59;22.97;81.51
65995;HTU21D;52764;51.036;5.852;2023-08-12T05:29:24;22.92;81.32
65995;HTU21D;52764;51.036;5.852;2023-08-12T05:31:50;22.86;81.62
65995;HTU21D;52764;51.036;5.852;2023-08-12T05:34:16;22.83;81.52
65995;HTU21D;52764;51.036;5.852;2023-08-12T05:36:41;22.83;81.49
65995;HTU21D;52764;51.036;5.852;2023-08-12T05:39:07;22.78;81.55
65995;HTU21D;52764;51.036;5.852;2023-08-12T05:41:33;22.72;81.56
65995;HTU21D;52764;51.036;5.852;2023-08-12T05:43:59;22.76;81.85
65995;HTU21D;52764;51.036;5.852;2023-08-12T05:46:24;22.82;81.41
65995;HTU21D;52764;51.036;5.852;2023-08-12T05:48:50;22.82;81.14
65995;HTU21D;52764;51.036;5.852;2023-08-12T05:51:16;22.81;81.26
65995;HTU21D;52764;51.036;5.852;2023-08-12T05:53:41;22.76;81.27
65995;HTU21D;52764;51.036;5.852;2023-08-12T05:56:07;22.78;81.30
65995;HTU21D;52764;51.036;5.852;2023-08-12T05:58:33;22.84;81.19
65995;HTU21D;52764;51.036;5.852;2023-08-12T06:00:58;22.91;81.09
65995;HTU21D;52764;51.036;5.852;2023-08-12T06:03:24;22.94;80.79
65995;HTU21D;52764;51.036;5.852;2023-08-12T06:05:50;22.88;80.80
65995;HTU21D;52764;51.036;5.852;2023-08-12T06:08:15;22.87;80.75
65995;HTU21D;52764;51.036;5.852;2023-08-12T06:10:41;22.88;80.68
65995;HTU21D;52764;51.036;5.852;2023-08-12T06:13:07;22.91;80.43
65995;HTU21D;52764;51.036;5.852;2023-08-12T06:15:33;22.88;80.62
65995;HTU21D;52764;51.036;5.852;2023-08-12T06:18:00;22.87;80.59
65995;HTU21D;52764;51.036;5.852;2023-08-12T06:20:26;22.88;80.43
65995;HTU21D;52764;51.036;5.852;2023-08-12T06:22:52;22.97;80.46
65995;HTU21D;52764;51.036;5.852;2023-08-12T06:25:18;23.09;80.33
65995;HTU21D;52764;51.036;5.852;2023-08-12T06:27:45;23.20;80.20
65995;HTU21D;52764;51.036;5.852;2023-08-12T06:30:12;23.25;79.79
65995;HTU21D;52764;51.036;5.852;2023-08-12T06:32:38;23.21;79.68
65995;HTU21D;52764;51.036;5.852;2023-08-12T06:35:04;23.20;79.74
65995;HTU21D;52764;51.036;5.852;2023-08-12T06:37:30;23.26;79.85
65995;HTU21D;52764;51.036;5.852;2023-08-12T06:39:55;23.31;79.44
65995;HTU21D;52764;51.036;5.852;2023-08-12T06:42:22;23.39;79.48
65995;HTU21D;52764;51.036;5.852;2023-08-12T06:44:56;23.49;79.33
65995;HTU21D;52764;51.036;5.852;2023-08-12T06:47:22;23.52;78.82
65995;HTU21D;52764;51.036;5.852;2023-08-12T06:49:48;23.56;78.32
65995;HTU21D;52764;51.036;5.852;2023-08-12T06:52:14;23.61;78.31
65995;HTU21D;52764;51.036;5.852;2023-08-12T06:54:41;23.65;78.12
65995;HTU21D;52764;51.036;5.852;2023-08-12T06:57:07;23.70;77.93
65995;HTU21D;52764;51.036;5.852;2023-08-12T06:59:33;23.75;77.55
65995;HTU21D;52764;51.036;5.852;2023-08-12T07:01:59;23.74;77.28
65995;HTU21D;52764;51.036;5.852;2023-08-12T07:04:25;23.73;77.41
65995;HTU21D;52764;51.036;5.852;2023-08-12T07:06:51;23.77;77.59
65995;HTU21D;52764;51.036;5.852;2023-08-12T07:09:16;23.81;77.24
65995;HTU21D;52764;51.036;5.852;2023-08-12T07:11:42;23.84;77.30
65995;HTU21D;52764;51.036;5.852;2023-08-12T07:14:08;23.88;77.10
65995;HTU21D;52764;51.036;5.852;2023-08-12T07:16:33;23.92;76.76
65995;HTU21D;52764;51.036;5.852;2023-08-12T07:18:59;24.00;76.38
65995;HTU21D;52764;51.036;5.852;2023-08-12T07:21:25;24.06;76.10
65995;HTU21D;52764;51.036;5.852;2023-08-12T07:23:51;24.00;76.31
65995;HTU21D;52764;51.036;5.852;2023-08-12T07:26:16;23.95;76.67
65995;HTU21D;52764;51.036;5.852;2023-08-12T07:28:42;23.90;77.00
65995;HTU21D;52764;51.036;5.852;2023-08-12T07:31:08;23.96;77.13
65995;HTU21D;52764;51.036;5.852;2023-08-12T07:33:34;24.11;76.92
65995;HTU21D;52764;51.036;5.852;2023-08-12T07:36:01;24.26;76.50
65995;HTU21D;52764;51.036;5.852;2023-08-12T07:38:27;24.35;75.99
65995;HTU21D;52764;51.036;5.852;2023-08-12T07:40:54;24.48;75.83
65995;HTU21D;52764;51.036;5.852;2023-08-12T07:43:20;24.61;75.36
65995;HTU21D;52764;51.036;5.852;2023-08-12T07:45:53;24.63;74.91
65995;HTU21D;52764;51.036;5.852;2023-08-12T07:48:22;24.61;74.76
65995;HTU21D;52764;51.036;5.852;2023-08-12T07:50:56;24.60;74.59
65995;HTU21D;52764;51.036;5.852;2023-08-12T07:53:21;24.62;74.61
65995;HTU21D;52764;51.036;5.852;2023-08-12T07:55:47;24.63;74.67
65995;HTU21D;52764;51.036;5.852;2023-08-12T07:58:13;24.64;74.87
65995;HTU21D;52764;51.036;5.852;2023-08-12T08:00:39;24.57;74.60
65995;HTU21D;52764;51.036;5.852;2023-08-12T08:03:04;24.59;74.86
65995;HTU21D;52764;51.036;5.852;2023-08-12T08:05:30;24.63;74.67
65995;HTU21D;52764;51.036;5.852;2023-08-12T08:07:56;24.59;74.79
65995;HTU21D;52764;51.036;5.852;2023-08-12T08:10:22;24.58;74.64
65995;HTU21D;52764;51.036;5.852;2023-08-12T08:12:48;24.48;74.83
65995;HTU21D;52764;51.036;5.852;2023-08-12T08:15:13;24.41;75.41
65995;HTU21D;52764;51.036;5.852;2023-08-12T08:17:39;24.32;76.02
65995;HTU21D;52764;51.036;5.852;2023-08-12T08:20:06;24.34;76.44
65995;HTU21D;52764;51.036;5.852;2023-08-12T08:22:32;24.53;76.49
65995;HTU21D;52764;51.036;5.852;2023-08-12T08:24:58;24.82;75.60
65995;HTU21D;52764;51.036;5.852;2023-08-12T08:27:24;25.00;74.89
65995;HTU21D;52764;51.036;5.852;2023-08-12T08:29:51;25.15;74.27
65995;HTU21D;52764;51.036;5.852;2023-08-12T08:32:17;25.32;73.85
65995;HTU21D;52764;51.036;5.852;2023-08-12T08:34:43;25.48;73.03
65995;HTU21D;52764;51.036;5.852;2023-08-12T08:37:08;25.54;72.27
65995;HTU21D;52764;51.036;5.852;2023-08-12T08:39:34;25.49;72.34
65995;HTU21D;52764;51.036;5.852;2023-08-12T08:42:02;25.42;72.20
65995;HTU21D;52764;51.036;5.852;2023-08-12T08:44:29;25.37;72.14
65995;HTU21D;52764;51.036;5.852;2023-08-12T08:46:58;25.33;72.50
65995;HTU21D;52764;51.036;5.852;2023-08-12T08:49:25;25.29;72.94
65995;HTU21D;52764;51.036;5.852;2023-08-12T08:51:52;25.18;73.83
65995;HTU21D;52764;51.036;5.852;2023-08-12T08:54:19;25.01;74.92
65995;HTU21D;52764;51.036;5.852;2023-08-12T08:56:46;24.86;75.97
65995;HTU21D;52764;51.036;5.852;2023-08-12T08:59:13;24.79;76.89
65995;HTU21D;52764;51.036;5.852;2023-08-12T09:01:40;24.86;77.08
65995;HTU21D;52764;51.036;5.852;2023-08-12T09:04:07;24.86;77.08
65995;HTU21D;52764;51.036;5.852;2023-08-12T09:06:36;24.74;77.47
65995;HTU21D;52764;51.036;5.852;2023-08-12T09:09:10;24.54;77.89
65995;HTU21D;52764;51.036;5.852;2023-08-12T09:11:38;24.42;78.42
65995;HTU21D;52764;51.036;5.852;2023-08-12T09:14:05;24.47;78.66
65995;HTU21D;52764;51.036;5.852;2023-08-12T09:16:30;24.40;78.99
65995;HTU21D;52764;51.036;5.852;2023-08-12T09:18:56;24.32;79.08
65995;HTU21D;52764;51.036;5.852;2023-08-12T09:21:22;24.27;79.14
65995;HTU21D;52764;51.036;5.852;2023-08-12T09:23:48;24.12;79.18
65995;HTU21D;52764;51.036;5.852;2023-08-12T09:26:18;24.02;79.71
65995;HTU21D;52764;51.036;5.852;2023-08-12T09:28:46;23.97;80.44
65995;HTU21D;52764;51.036;5.852;2023-08-12T09:31:32;23.97;80.51
65995;HTU21D;52764;51.036;5.852;2023-08-12T09:34:05;24.01;80.40
65995;HTU21D;52764;51.036;5.852;2023-08-12T09:36:34;24.02;80.55
65995;HTU21D;52764;51.036;5.852;2023-08-12T09:39:00;24.12;80.62
65995;HTU21D;52764;51.036;5.852;2023-08-12T09:41:31;24.14;80.66
65995;HTU21D;52764;51.036;5.852;2023-08-12T09:43:56;24.24;81.17
65995;HTU21D;52764;51.036;5.852;2023-08-12T09:46:23;24.29;80.14
65995;HTU21D;52764;51.036;5.852;2023-08-12T09:48:51;24.31;80.12
65995;HTU21D;52764;51.036;5.852;2023-08-12T09:51:20;24.45;79.77
65995;HTU21D;52764;51.036;5.852;2023-08-12T09:53:49;24.58;79.37
65995;HTU21D;52764;51.036;5.852;2023-08-12T09:56:18;24.88;78.80
65995;HTU21D;52764;51.036;5.852;2023-08-12T09:58:48;24.78;78.50
65995;HTU21D;52764;51.036;5.852;2023-08-12T10:01:18;24.89;78.20
65995;HTU21D;52764;51.036;5.852;2023-08-12T10:03:48;24.93;77.87
65995;HTU21D;52764;51.036;5.852;2023-08-12T10:06:15;25.07;77.77
65995;HTU21D;52764;51.036;5.852;2023-08-12T10:08:42;25.21;77.05
65995;HTU21D;52764;51.036;5.852;2023-08-12T10:11:10;25.29;76.33
65995;HTU21D;52764;51.036;5.852;2023-08-12T10:13:36;25.40;76.15
65995;HTU21D;52764;51.036;5.852;2023-08-12T10:16:02;25.58;75.82
65995;HTU21D;52764;51.036;5.852;2023-08-12T10:18:30;25.82;74.83
65995;HTU21D;52764;51.036;5.852;2023-08-12T10:21:00;26.03;74.02
65995;HTU21D;52764;51.036;5.852;2023-08-12T10:23:27;26.21;73.49
65995;HTU21D;52764;51.036;5.852;2023-08-12T10:25:55;26.27;72.52
65995;HTU21D;52764;51.036;5.852;2023-08-12T10:28:22;26.25;72.70
65995;HTU21D;52764;51.036;5.852;2023-08-12T10:30:48;26.25;72.59
65995;HTU21D;52764;51.036;5.852;2023-08-12T10:33:14;26.40;72.54
65995;HTU21D;52764;51.036;5.852;2023-08-12T10:35:48;26.58;72.05
65995;HTU21D;52764;51.036;5.852;2023-08-12T10:38:17;26.73;71.26
65995;HTU21D;52764;51.036;5.852;2023-08-12T10:40:44;26.72;70.68
65995;HTU21D;52764;51.036;5.852;2023-08-12T10:43:12;26.55;71.19
65995;HTU21D;52764;51.036;5.852;2023-08-12T10:45:54;26.19;72.35
65995;HTU21D;52764;51.036;5.852;2023-08-12T10:48:24;25.81;73.51
65995;HTU21D;52764;51.036;5.852;2023-08-12T10:50:58;25.47;74.44
65995;HTU21D;52764;51.036;5.852;2023-08-12T10:53:26;25.32;75.60
65995;HTU21D;52764;51.036;5.852;2023-08-12T10:56:01;25.20;75.77
65995;HTU21D;52764;51.036;5.852;2023-08-12T10:58:35;25.15;76.05
65995;HTU21D;52764;51.036;5.852;2023-08-12T11:01:01;25.19;76.08
65995;HTU21D;52764;51.036;5.852;2023-08-12T11:03:32;25.31;76.32
65995;HTU21D;52764;51.036;5.852;2023-08-12T11:05:59;25.46;76.07
65995;HTU21D;52764;51.036;5.852;2023-08-12T11:08:28;25.63;75.57
65995;HTU21D;52764;51.036;5.852;2023-08-12T11:10:55;25.73;74.48
65995;HTU21D;52764;51.036;5.852;2023-08-12T11:13:22;25.80;74.23
65995;HTU21D;52764;51.036;5.852;2023-08-12T11:15:48;25.79;74.02
65995;HTU21D;52764;51.036;5.852;2023-08-12T11:18:18;25.89;73.25
65995;HTU21D;52764;51.036;5.852;2023-08-12T11:20:45;25.91;72.22
65995;HTU21D;52764;51.036;5.852;2023-08-12T11:23:12;25.87;72.15
65995;HTU21D;52764;51.036;5.852;2023-08-12T11:25:40;25.76;71.97
65995;HTU21D;52764;51.036;5.852;2023-08-12T11:28:06;25.67;71.81
65995;HTU21D;52764;51.036;5.852;2023-08-12T11:30:33;25.63;71.40
65995;HTU21D;52764;51.036;5.852;2023-08-12T11:33:01;25.57;71.40
65995;HTU21D;52764;51.036;5.852;2023-08-12T11:35:27;25.53;71.52
65995;HTU21D;52764;51.036;5.852;2023-08-12T11:37:55;25.44;72.11
65995;HTU21D;52764;51.036;5.852;2023-08-12T11:40:23;25.25;72.64
65995;HTU21D;52764;51.036;5.852;2023-08-12T11:42:50;25.09;73.43
65995;HTU21D;52764;51.036;5.852;2023-08-12T11:45:18;25.12;73.93
65995;HTU21D;52764;51.036;5.852;2023-08-12T11:47:45;25.16;73.57
65995;HTU21D;52764;51.036;5.852;2023-08-12T11:50:19;25.20;73.10
65995;HTU21D;52764;51.036;5.852;2023-08-12T11:52:46;25.08;72.54
65995;HTU21D;52764;51.036;5.852;2023-08-12T11:55:12;24.97;71.88
65995;HTU21D;52764;51.036;5.852;2023-08-12T11:57:41;24.95;71.22
65995;HTU21D;52764;51.036;5.852;2023-08-12T12:00:09;25.01;70.96
65995;HTU21D;52764;51.036;5.852;2023-08-12T12:02:53;25.21;70.21
65995;HTU21D;52764;51.036;5.852;2023-08-12T12:05:26;25.42;69.59
65995;HTU21D;52764;51.036;5.852;2023-08-12T12:07:52;25.60;69.13
65995;HTU21D;52764;51.036;5.852;2023-08-12T12:10:20;25.80;68.78
65995;HTU21D;52764;51.036;5.852;2023-08-12T12:12:48;25.87;69.16
65995;HTU21D;52764;51.036;5.852;2023-08-12T12:15:14;24.90;68.71
65995;HTU21D;52764;51.036;5.852;2023-08-12T12:17:46;26.37;67.67
65995;HTU21D;52764;51.036;5.852;2023-08-12T12:20:12;26.77;66.99
65995;HTU21D;52764;51.036;5.852;2023-08-12T12:22:42;27.16;65.77
65995;HTU21D;52764;51.036;5.852;2023-08-12T12:25:11;27.50;64.50
65995;HTU21D;52764;51.036;5.852;2023-08-12T12:27:38;27.80;63.94
65995;HTU21D;52764;51.036;5.852;2023-08-12T12:30:11;27.95;62.42
65995;HTU21D;52764;51.036;5.852;2023-08-12T12:32:37;27.89;61.98
65995;HTU21D;52764;51.036;5.852;2023-08-12T12:35:04;27.82;62.52
65995;HTU21D;52764;51.036;5.852;2023-08-12T12:37:30;27.85;63.24
65995;HTU21D;52764;51.036;5.852;2023-08-12T12:39:56;27.82;63.05
65995;HTU21D;52764;51.036;5.852;2023-08-12T12:42:22;27.74;62.98
65995;HTU21D;52764;51.036;5.852;2023-08-12T12:44:47;27.64;62.13
65995;HTU21D;52764;51.036;5.852;2023-08-12T12:47:13;27.55;61.54
65995;HTU21D;52764;51.036;5.852;2023-08-12T12:49:39;27.49;61.54
65995;HTU21D;52764;51.036;5.852;2023-08-12T12:52:07;27.52;61.72
65995;HTU21D;52764;51.036;5.852;2023-08-12T12:54:32;27.63;61.70
65995;HTU21D;52764;51.036;5.852;2023-08-12T12:56:58;27.58;61.51
65995;HTU21D;52764;51.036;5.852;2023-08-12T12:59:24;27.63;61.02
65995;HTU21D;52764;51.036;5.852;2023-08-12T13:01:50;27.73;60.15
65995;HTU21D;52764;51.036;5.852;2023-08-12T13:04:16;27.68;59.35
65995;HTU21D;52764;51.036;5.852;2023-08-12T13:06:41;27.64;59.25
65995;HTU21D;52764;51.036;5.852;2023-08-12T13:09:07;28.05;59.02
65995;HTU21D;52764;51.036;5.852;2023-08-12T13:11:33;27.83;58.94
65995;HTU21D;52764;51.036;5.852;2023-08-12T13:14:05;27.84;57.86
65995;HTU21D;52764;51.036;5.852;2023-08-12T13:16:31;27.67;57.79
65995;HTU21D;52764;51.036;5.852;2023-08-12T13:18:57;27.53;57.31
65995;HTU21D;52764;51.036;5.852;2023-08-12T13:21:27;27.43;57.78
65995;HTU21D;52764;51.036;5.852;2023-08-12T13:23:53;27.36;57.48
65995;HTU21D;52764;51.036;5.852;2023-08-12T13:26:21;27.24;57.57
65995;HTU21D;52764;51.036;5.852;2023-08-12T13:28:47;27.21;57.87
65995;HTU21D;52764;51.036;5.852;2023-08-12T13:31:13;27.20;57.76
65995;HTU21D;52764;51.036;5.852;2023-08-12T13:33:39;27.19;56.59
65995;HTU21D;52764;51.036;5.852;2023-08-12T13:36:05;27.20;55.76
65995;HTU21D;52764;51.036;5.852;2023-08-12T13:38:30;27.19;54.88
65995;HTU21D;52764;51.036;5.852;2023-08-12T13:40:56;27.11;53.90
65995;HTU21D;52764;51.036;5.852;2023-08-12T13:43:22;27.08;54.13
65995;HTU21D;52764;51.036;5.852;2023-08-12T13:45:48;27.08;53.94
65995;HTU21D;52764;51.036;5.852;2023-08-12T13:48:14;27.10;54.00
65995;HTU21D;52764;51.036;5.852;2023-08-12T13:50:40;27.08;53.20
65995;HTU21D;52764;51.036;5.852;2023-08-12T13:53:06;27.01;52.47
65995;HTU21D;52764;51.036;5.852;2023-08-12T13:55:32;27.01;52.87
65995;HTU21D;52764;51.036;5.852;2023-08-12T13:57:57;26.98;52.68
65995;HTU21D;52764;51.036;5.852;2023-08-12T14:00:23;26.98;52.25
65995;HTU21D;52764;51.036;5.852;2023-08-12T14:02:50;26.97;51.60
65995;HTU21D;52764;51.036;5.852;2023-08-12T14:05:15;27.09;51.63
65995;HTU21D;52764;51.036;5.852;2023-08-12T14:07:41;26.98;50.95
65995;HTU21D;52764;51.036;5.852;2023-08-12T14:10:07;26.99;50.76
65995;HTU21D;52764;51.036;5.852;2023-08-12T14:12:34;27.00;50.95
65995;HTU21D;52764;51.036;5.852;2023-08-12T14:15:00;27.04;50.57
65995;HTU21D;52764;51.036;5.852;2023-08-12T14:17:26;27.05;50.16
65995;HTU21D;52764;51.036;5.852;2023-08-12T14:19:52;24.11;49.77
65995;HTU21D;52764;51.036;5.852;2023-08-12T14:22:19;27.08;49.53
65995;HTU21D;52764;51.036;5.852;2023-08-12T14:24:45;27.06;49.65
65995;HTU21D;52764;51.036;5.852;2023-08-12T14:27:11;27.02;49.60
65995;HTU21D;52764;51.036;5.852;2023-08-12T14:29:38;27.05;49.63
65995;HTU21D;52764;51.036;5.852;2023-08-12T14:32:04;27.04;50.07
65995;HTU21D;52764;51.036;5.852;2023-08-12T14:34:30;27.04;50.18
65995;HTU21D;52764;51.036;5.852;2023-08-12T14:36:55;27.10;49.89
65995;HTU21D;52764;51.036;5.852;2023-08-12T14:39:21;27.17;50.12
65995;HTU21D;52764;51.036;5.852;2023-08-12T14:41:47;27.24;49.75
65995;HTU21D;52764;51.036;5.852;2023-08-12T14:44:14;27.29;49.63
65995;HTU21D;52764;51.036;5.852;2023-08-12T14:46:40;27.29;49.50
65995;HTU21D;52764;51.036;5.852;2023-08-12T14:49:05;27.32;49.27
65995;HTU21D;52764;51.036;5.852;2023-08-12T14:51:31;27.40;49.69
65995;HTU21D;52764;51.036;5.852;2023-08-12T14:53:57;27.54;49.52
65995;HTU21D;52764;51.036;5.852;2023-08-12T14:56:22;27.57;49.56
65995;HTU21D;52764;51.036;5.852;2023-08-12T14:58:48;27.55;49.27
65995;HTU21D;52764;51.036;5.852;2023-08-12T15:01:14;27.55;49.63
65995;HTU21D;52764;51.036;5.852;2023-08-12T15:03:41;27.55;50.00
65995;HTU21D;52764;51.036;5.852;2023-08-12T15:06:07;27.57;49.81
65995;HTU21D;52764;51.036;5.852;2023-08-12T15:08:33;27.53;49.09
65995;HTU21D;52764;51.036;5.852;2023-08-12T15:10:59;27.49;48.12
65995;HTU21D;52764;51.036;5.852;2023-08-12T15:13:25;27.46;48.02
65995;HTU21D;52764;51.036;5.852;2023-08-12T15:15:52;27.50;48.82